createdAt,value
2022-12-28T00:03:58.699Z,0.989
2022-12-28T00:09:00.516Z,0.75463
2022-12-28T00:14:02.396Z,0.50058
2022-12-28T00:19:04.220Z,-0.54007
2022-12-28T00:24:05.873Z,0.00105
2022-12-28T00:29:07.691Z,-0.11041
2022-12-28T00:34:09.387Z,-0.34541
2022-12-28T00:39:11.155Z,0.31989
2022-12-28T00:44:12.868Z,0.58251
2022-12-28T00:49:14.567Z,1.06458
2022-12-28T00:54:16.195Z,1.3488
2022-12-28T00:59:17.828Z,0.61522
2022-12-28T01:04:19.503Z,0.05186
2022-12-28T01:09:21.155Z,0.30814
2022-12-28T01:14:22.814Z,-0.68678
2022-12-28T01:19:24.457Z,-1.09294
2022-12-28T01:24:26.112Z,-0.42956
2022-12-28T01:29:27.795Z,0.26241
2022-12-28T01:34:29.448Z,0.7648
2022-12-28T01:39:31.120Z,0.73717
2022-12-28T01:44:32.768Z,0.7559
2022-12-28T01:49:34.446Z,0.02741
2022-12-28T01:54:36.169Z,0.86197
2022-12-28T01:59:37.921Z,0.47581
2022-12-28T02:04:39.579Z,1.01091
2022-12-28T02:09:41.235Z,1.18176
2022-12-28T02:14:42.886Z,-0.03737
2022-12-28T02:19:44.512Z,-0.54483
2022-12-28T02:24:46.526Z,0.51614
2022-12-28T02:29:48.234Z,-0.03864
2022-12-28T02:34:49.875Z,0.19159
2022-12-28T02:39:51.536Z,-0.87446
2022-12-28T02:44:53.184Z,-1.1609
2022-12-28T02:49:54.816Z,-0.80873
2022-12-28T02:54:56.479Z,-0.3778
2022-12-28T02:59:58.167Z,0.79179
2022-12-28T03:04:59.812Z,0.79719
2022-12-28T03:10:01.512Z,0.50185
2022-12-28T03:15:03.465Z,0.7359
2022-12-28T03:20:05.287Z,0.59299
2022-12-28T03:25:06.981Z,0.24621
2022-12-28T03:30:08.626Z,0.57267
2022-12-28T03:35:10.301Z,-0.05071
2022-12-28T03:40:12.001Z,0.01122
2022-12-28T03:45:13.881Z,-0.66328
2022-12-28T03:50:46.315Z,-0.97735
2022-12-28T03:55:47.982Z,-0.62264
2022-12-28T04:00:49.863Z,0.5317
2022-12-28T04:05:51.638Z,0.03249
2022-12-28T04:10:53.266Z,0.64126
2022-12-28T04:15:54.987Z,-0.05547
2022-12-28T04:20:56.666Z,0.44056
2022-12-28T04:25:58.301Z,0.65492
2022-12-28T04:31:00.032Z,-0.00244
2022-12-28T04:36:01.653Z,-0.89129
2022-12-28T04:41:03.283Z,-0.83667
2022-12-28T04:46:04.947Z,0.43421
2022-12-28T04:51:06.590Z,0.64857
2022-12-28T04:56:08.299Z,0.26336
2022-12-28T05:01:10.044Z,0.74606
2022-12-28T05:06:11.775Z,0.94644
2022-12-28T05:11:13.861Z,1.06331
2022-12-28T05:16:15.526Z,0.11982
2022-12-28T05:21:17.264Z,0.19318
2022-12-28T05:26:18.910Z,0.53583
2022-12-28T05:31:20.606Z,0.60474
2022-12-28T05:36:22.341Z,1.00742
2022-12-28T05:41:24.113Z,0.31131
2022-12-28T05:46:25.777Z,0.06679
2022-12-28T05:51:27.441Z,0.73177
2022-12-28T05:56:29.231Z,0.00487
2022-12-28T06:01:31.016Z,-0.4845
2022-12-28T06:06:33.026Z,-0.44829
2022-12-28T06:11:34.701Z,0.22303
2022-12-28T06:16:36.351Z,0.37038
2022-12-28T06:21:38.060Z,0.85213
2022-12-28T06:26:39.775Z,0.58569
2022-12-28T06:31:41.504Z,0.11379
2022-12-28T06:36:43.207Z,-0.03483
2022-12-28T06:41:44.862Z,0.07949
2022-12-28T06:46:46.534Z,0.51995
2022-12-28T06:51:48.405Z,0.48534
2022-12-28T06:56:50.021Z,0.57235
2022-12-28T07:01:51.757Z,0.56949
2022-12-28T07:06:53.461Z,0.5009
2022-12-28T07:11:55.083Z,0.04424
2022-12-28T07:16:56.777Z,0.59744
2022-12-28T07:21:58.378Z,0.65174
2022-12-28T07:26:59.994Z,0.35673
2022-12-28T07:32:01.715Z,0.42976
2022-12-28T07:37:03.369Z,0.23002
2022-12-28T07:42:05.019Z,-0.12152
2022-12-28T07:47:06.619Z,0.5949
2022-12-28T07:52:08.505Z,0.04583
2022-12-28T07:57:10.168Z,0.42532
2022-12-28T08:02:11.939Z,0.76924
2022-12-28T08:07:13.798Z,0.58188
2022-12-28T08:12:15.455Z,0.33418
2022-12-28T08:17:21.230Z,0.56695
2022-12-28T08:22:23.279Z,0.1103
2022-12-28T08:27:24.939Z,0.05345
2022-12-28T08:32:26.592Z,-0.02022
2022-12-28T08:37:28.235Z,0.12871
2022-12-28T08:42:29.917Z,-0.19552
2022-12-28T08:47:31.594Z,0.31227
2022-12-28T08:52:33.273Z,0.17984
2022-12-28T08:57:34.889Z,0.51964
2022-12-28T09:02:36.912Z,-0.5931
2022-12-28T09:07:38.680Z,0.54345
2022-12-28T09:12:40.363Z,0.68382
2022-12-28T09:17:41.976Z,0.62665
2022-12-28T09:22:43.579Z,0.4231
2022-12-28T09:27:45.188Z,0.32179
2022-12-28T09:32:46.760Z,0.20048
2022-12-28T09:37:48.473Z,0.37705
2022-12-28T09:42:50.090Z,0.58124
2022-12-28T09:47:51.778Z,0.81973
2022-12-28T09:52:53.465Z,0.6311
2022-12-28T09:57:55.299Z,0.37229
2022-12-28T10:02:57.040Z,0.78671
2022-12-28T10:07:58.732Z,0.31163
2022-12-28T10:13:00.622Z,0.2478
2022-12-28T10:18:02.383Z,0.4015
2022-12-28T10:23:03.983Z,0.1465
2022-12-28T10:28:05.698Z,0.75336
2022-12-28T10:33:11.068Z,0.88674
2022-12-28T10:38:15.430Z,0.96994
2022-12-28T10:43:20.044Z,0.774
2022-12-28T10:48:21.698Z,0.55266
2022-12-28T10:53:23.385Z,0.67302
2022-12-28T11:03:21.955Z,0.67651
2022-12-28T11:08:23.982Z,0.123
2022-12-28T11:13:25.652Z,0.17127
2022-12-28T11:18:28.374Z,-0.12502
2022-12-28T11:23:32.639Z,-0.30571
2022-12-28T11:28:34.324Z,-0.25585
2022-12-28T11:33:35.973Z,-0.20409
2022-12-28T11:38:37.596Z,-0.13836
2022-12-28T11:43:39.265Z,-0.25966
2022-12-28T11:48:40.903Z,0.03567
2022-12-28T11:53:42.540Z,0.03218
2022-12-28T11:58:44.396Z,0.28908
2022-12-28T12:03:46.104Z,0.74161
2022-12-28T12:08:47.861Z,0.30433
2022-12-28T12:13:49.547Z,0.01376
2022-12-28T12:18:51.179Z,0.31512
2022-12-28T12:23:52.834Z,0.09315
2022-12-28T12:28:54.454Z,0.41801
2022-12-28T12:33:56.217Z,0.80671
2022-12-28T12:38:57.872Z,0.65206
2022-12-28T12:43:59.575Z,0.59744
2022-12-28T12:49:01.227Z,0.20969
2022-12-28T12:54:02.870Z,0.57584
2022-12-28T12:59:04.531Z,0.98106
2022-12-28T13:04:06.229Z,1.1789
2022-12-28T13:09:07.882Z,1.1211
2022-12-28T13:14:09.513Z,1.0776
2022-12-28T13:19:11.254Z,0.70001
2022-12-28T13:24:12.893Z,0.6057
2022-12-28T13:29:14.518Z,0.70128
2022-12-28T13:34:16.244Z,0.61903
2022-12-28T13:39:17.946Z,0.85181
2022-12-28T13:44:19.575Z,0.65174
2022-12-28T13:49:21.445Z,0.61935
2022-12-28T13:54:23.113Z,0.89785
2022-12-28T13:59:25.147Z,0.84228
2022-12-28T14:04:51.698Z,1.20399
2022-12-28T14:09:54.385Z,0.59617
2022-12-28T14:14:56.095Z,0.60728
2022-12-28T14:19:57.866Z,0.75686
2022-12-28T14:24:59.564Z,0.79465
2022-12-28T14:30:01.458Z,0.70573
2022-12-28T14:35:03.315Z,0.88007
2022-12-28T14:40:04.974Z,0.74066
2022-12-28T14:45:06.929Z,0.8299
2022-12-28T14:50:08.599Z,0.59903
2022-12-28T14:55:10.246Z,0.88833
2022-12-28T15:00:12.091Z,0.7089
2022-12-28T15:05:13.912Z,0.73558
2022-12-28T15:10:15.555Z,0.65301
2022-12-28T15:15:19.120Z,0.72764
2022-12-28T15:20:20.785Z,0.85435
2022-12-28T15:25:22.443Z,0.7613
2022-12-28T15:30:28.809Z,0.73145
2022-12-28T15:35:30.917Z,0.49074
2022-12-28T15:40:32.566Z,0.77972
2022-12-28T15:45:34.299Z,0.58378
2022-12-28T15:50:35.913Z,0.54885
2022-12-28T15:55:37.522Z,0.82164
2022-12-28T16:00:44.189Z,0.58728
2022-12-28T16:05:49.111Z,0.50662
2022-12-28T16:10:50.811Z,0.82894
2022-12-28T16:15:52.504Z,0.58601
2022-12-28T16:20:54.171Z,0.89976
2022-12-28T16:25:55.793Z,0.85117
2022-12-28T16:30:57.393Z,0.83466
2022-12-28T16:35:59.960Z,1.13412
2022-12-28T16:41:01.772Z,0.72764
2022-12-28T16:46:03.488Z,0.93374
2022-12-28T16:51:05.150Z,0.97185
2022-12-28T16:56:06.852Z,0.92612
2022-12-28T17:01:08.799Z,1.21923
2022-12-28T17:06:10.549Z,0.92612
2022-12-28T17:11:12.204Z,0.62507
2022-12-28T17:16:14.080Z,0.68223
2022-12-28T17:21:15.740Z,1.00964
2022-12-28T17:26:17.403Z,1.13476
2022-12-28T17:31:19.178Z,1.11031
2022-12-28T17:36:20.858Z,1.40501
2022-12-28T17:41:22.486Z,1.19319
2022-12-28T17:46:24.378Z,0.71462
2022-12-28T17:51:26.036Z,0.53266
2022-12-28T17:56:27.757Z,1.02996
2022-12-28T18:01:29.613Z,0.39579
2022-12-28T18:06:31.324Z,0.27511
2022-12-28T18:11:32.953Z,1.08458
2022-12-28T18:16:34.721Z,1.49424
2022-12-28T18:21:36.486Z,1.47297
2022-12-28T18:26:38.115Z,1.38691
2022-12-28T18:31:39.842Z,1.5025
2022-12-28T18:36:41.533Z,2.10048
2022-12-28T18:41:43.250Z,2.0122
2022-12-28T18:46:44.964Z,2.12621
2022-12-28T18:51:46.721Z,1.2621
2022-12-28T18:56:48.347Z,1.3018
2022-12-28T19:02:07.699Z,1.34594
2022-12-28T19:07:10.066Z,0.57108
2022-12-28T19:12:11.719Z,0.77972
2022-12-28T19:17:13.335Z,0.80417
2022-12-28T19:22:15.082Z,0.85213
2022-12-28T19:27:16.708Z,0.71049
2022-12-28T19:32:18.322Z,0.78829
2022-12-28T19:37:19.898Z,0.85816
2022-12-28T19:42:21.561Z,1.19541
2022-12-28T19:47:23.182Z,0.83784
2022-12-28T19:52:24.926Z,0.99471
2022-12-28T19:57:26.881Z,1.00043
2022-12-28T20:02:28.655Z,0.97915
2022-12-28T20:07:30.408Z,1.10173
2022-12-28T20:12:32.081Z,1.47964
2022-12-28T20:17:33.795Z,1.17223
2022-12-28T20:22:35.500Z,1.10332
2022-12-28T20:27:37.206Z,1.15064
2022-12-28T20:32:44.554Z,1.05569
2022-12-28T20:37:46.692Z,0.97852
2022-12-28T20:42:48.357Z,1.18239
2022-12-28T20:47:50.074Z,1.06807
2022-12-28T20:52:51.690Z,0.9601
2022-12-28T20:57:53.432Z,1.02107
2022-12-28T21:02:55.061Z,1.56856
2022-12-28T21:07:56.772Z,1.71178
2022-12-28T21:12:58.435Z,1.58031
2022-12-28T21:18:00.133Z,1.58443
2022-12-28T21:23:01.780Z,1.19891
2022-12-28T21:28:03.365Z,1.12015
2022-12-28T21:33:05.022Z,1.07982
2022-12-28T21:38:06.657Z,1.18843
2022-12-28T21:43:08.288Z,0.81465
2022-12-28T21:48:09.955Z,0.75019
2022-12-28T21:53:11.849Z,0.6727
2022-12-28T21:58:13.807Z,1.34054
2022-12-28T22:03:15.576Z,0.91405
2022-12-28T22:08:17.307Z,0.63015
2022-12-28T22:13:19.166Z,0.6492
2022-12-28T22:18:52.699Z,0.78131
2022-12-28T22:24:03.054Z,0.65333
2022-12-28T22:29:04.899Z,0.95375
2022-12-28T22:34:07.281Z,1.09062
2022-12-28T22:39:09.269Z,1.01059
2022-12-28T22:44:10.959Z,1.05537
2022-12-28T22:49:12.681Z,1.45328
2022-12-28T22:54:15.081Z,1.04425
2022-12-28T22:59:16.778Z,1.07601
2022-12-28T23:04:18.383Z,1.39485
2022-12-28T23:09:20.028Z,1.22622
2022-12-28T23:14:21.747Z,1.87691
2022-12-28T23:19:23.736Z,2.2056
2022-12-28T23:24:25.416Z,2.45172
2022-12-28T23:29:30.784Z,1.91439
2022-12-28T23:34:32.621Z,1.73845
2022-12-28T23:39:34.399Z,0.76765
2022-12-28T23:44:36.002Z,0.25542
2022-12-28T23:49:37.686Z,0.6727
2022-12-28T23:54:39.392Z,0.25415
2022-12-28T23:59:41.061Z,0.73748
